Time;durP1;ratioP1;P1;durP2;ratioP2;P2;SDS_P1;SDS_P2;PMS_P1;PMS_P2;Temp;Humidity;BMP_temperature;BMP_pressure;BME280_temperature;BME280_humidity;BME280_pressure;Samples;Min_cycle;Max_cycle;Signal;HPM_P1;HPM_P2
2023/12/29 00:00:18;;;;;;;45.93;22.60;;;;;;;-144.30;83.38;86527.75;5111968;28;20195;-54
2023/12/29 00:02:46;;;;;;;49.70;23.83;;;;;;;-144.30;84.02;86525.75;5112145;28;20641;-56
2023/12/29 00:05:13;;;;;;;49.40;23.30;;;;;;;-144.30;83.51;86549.63;5112201;28;20690;-55
2023/12/29 00:07:39;;;;;;;48.10;24.57;;;;;;;-144.30;83.43;86529.75;5111958;28;20714;-55
2023/12/29 00:10:07;;;;;;;42.57;23.47;;;;;;;-144.30;82.62;86511.84;5112064;28;20205;-53
2023/12/29 00:12:34;;;;;;;42.43;22.40;;;;;;;-144.30;82.52;86503.91;5111933;28;20194;-54
2023/12/29 00:15:01;;;;;;;44.27;24.40;;;;;;;-144.30;82.50;86523.78;5111503;28;20646;-56
2023/12/29 00:17:27;;;;;;;46.27;25.73;;;;;;;-144.30;82.32;86501.91;5112210;28;20195;-55
2023/12/29 00:19:56;;;;;;;51.77;26.87;;;;;;;-144.30;82.55;86535.72;5112149;28;20202;-54
2023/12/29 00:22:23;;;;;;;48.93;25.27;;;;;;;-144.30;82.35;86513.84;5111614;28;20614;-59
2023/12/29 00:24:50;;;;;;;43.73;24.20;;;;;;;-144.30;82.84;86535.72;5111689;28;20226;-60
2023/12/29 00:27:17;;;;;;;48.57;25.17;;;;;;;-144.30;82.91;86537.69;5111288;28;20205;-61
2023/12/29 00:29:44;;;;;;;57.67;27.50;;;;;;;-144.30;83.27;86515.81;5111620;28;20195;-61
2023/12/29 00:32:11;;;;;;;56.47;28.37;;;;;;;-144.30;83.92;86545.66;5110833;28;20201;-61
2023/12/29 00:34:38;;;;;;;57.37;27.67;;;;;;;-144.30;84.00;86517.81;5111751;28;20198;-61
2023/12/29 00:37:08;;;;;;;53.80;27.47;;;;;;;-144.30;84.49;86517.81;5111591;28;20228;-55
2023/12/29 00:39:38;;;;;;;49.63;23.77;;;;;;;-144.30;84.29;86559.56;5111414;28;20202;-55
2023/12/29 00:42:05;;;;;;;43.73;21.07;;;;;;;-144.30;83.63;86519.81;5110930;28;20237;-56
2023/12/29 00:44:33;;;;;;;42.37;20.10;;;;;;;-144.30;82.95;86474.06;5111423;28;20218;-55
2023/12/29 00:47:00;;;;;;;33.97;18.57;;;;;;;-144.30;83.49;86533.72;5111424;28;20670;-55
2023/12/29 00:49:27;;;;;;;33.33;18.37;;;;;;;-144.30;83.63;86513.84;5111513;28;20249;-56
2023/12/29 00:51:54;;;;;;;31.77;18.37;;;;;;;-144.30;82.96;86547.66;5111265;28;20195;-55
2023/12/29 00:54:22;;;;;;;34.60;18.07;;;;;;;-144.30;82.66;86539.69;5110942;28;20194;-61
2023/12/29 00:56:50;;;;;;;32.77;19.70;;;;;;;-144.30;82.57;86545.66;5111227;28;20281;-56
2023/12/29 00:59:17;;;;;;;29.93;18.67;;;;;;;-144.30;82.47;86529.75;5110936;28;20619;-56
2023/12/29 01:01:44;;;;;;;39.10;19.17;;;;;;;-144.30;82.73;86519.81;5111230;28;20198;-55
2023/12/29 01:04:11;;;;;;;33.70;18.97;;;;;;;-144.30;83.00;86533.72;5110830;28;20222;-55
2023/12/29 01:06:38;;;;;;;32.13;18.10;;;;;;;-144.30;83.33;86561.56;5110627;28;20202;-56
2023/12/29 01:09:05;;;;;;;31.10;18.90;;;;;;;-144.30;83.21;86450.19;5110661;28;20202;-55
2023/12/29 01:11:33;;;;;;;34.27;18.33;;;;;;;-144.30;82.95;86537.69;5110942;28;20197;-54
2023/12/29 01:14:00;;;;;;;34.37;17.93;;;;;;;-144.30;82.57;86531.72;5110663;28;20197;-56
2023/12/29 01:16:27;;;;;;;35.90;17.70;;;;;;;-144.30;82.64;86505.88;5110689;28;20380;-60
2023/12/29 01:18:53;;;;;;;31.00;17.40;;;;;;;-144.30;82.79;86501.91;5110914;28;20209;-61
2023/12/29 01:21:20;;;;;;;29.10;16.87;;;;;;;-144.30;82.74;86557.59;5110786;28;20194;-61
2023/12/29 01:23:47;;;;;;;30.23;17.47;;;;;;;-144.30;82.35;86521.78;5110558;28;20192;-59
2023/12/29 01:26:14;;;;;;;31.43;17.70;;;;;;;-144.30;82.74;86513.84;5110629;28;20203;-61
2023/12/29 01:28:42;;;;;;;27.77;16.90;;;;;;;-144.30;82.32;86537.69;5110657;28;20201;-61
2023/12/29 01:31:11;;;;;;;33.07;16.93;;;;;;;-144.30;82.37;86525.75;5110423;28;20198;-54
2023/12/29 01:33:38;;;;;;;33.97;17.50;;;;;;;-144.30;83.01;86525.75;5110366;28;20723;-54
2023/12/29 01:36:05;;;;;;;29.83;17.83;;;;;;;-144.30;83.32;86521.78;5110667;28;20320;-61
2023/12/29 01:38:32;;;;;;;33.03;17.20;;;;;;;-144.30;84.34;86472.06;5110445;28;20580;-61
2023/12/29 01:40:58;;;;;;;26.67;16.60;;;;;;;-144.30;84.64;86577.47;5110452;28;20588;-60
2023/12/29 01:43:25;;;;;;;33.13;18.93;;;;;;;-144.30;85.35;86557.59;5110237;28;20209;-55
2023/12/29 01:45:54;;;;;;;35.00;17.90;;;;;;;-144.30;85.55;86543.66;5110164;28;20218;-54
2023/12/29 01:48:21;;;;;;;33.67;18.90;;;;;;;-144.30;85.96;86537.69;5109945;28;20203;-61
2023/12/29 01:50:48;;;;;;;32.10;18.83;;;;;;;-144.30;86.29;86541.69;5109987;28;20214;-61
2023/12/29 01:53:14;;;;;;;31.27;18.97;;;;;;;-144.30;86.32;86567.53;5110273;28;20655;-54
2023/12/29 01:55:43;;;;;;;37.23;19.47;;;;;;;-144.30;86.71;86547.66;5110037;28;20197;-55
2023/12/29 01:58:10;;;;;;;32.57;17.80;;;;;;;-144.30;86.93;86569.50;5109989;28;20194;-55
2023/12/29 02:00:37;;;;;;;37.60;16.83;;;;;;;-144.30;86.73;86561.56;5110311;28;20199;-54
2023/12/29 02:03:05;;;;;;;27.63;17.47;;;;;;;-144.30;87.05;86545.66;5110049;28;20195;-60
2023/12/29 02:05:36;;;;;;;34.03;19.20;;;;;;;-144.30;87.12;86577.47;5110229;28;20710;-60
2023/12/29 02:08:03;;;;;;;29.57;18.03;;;;;;;-144.30;87.34;86523.78;5110076;28;20582;-61
2023/12/29 02:10:31;;;;;;;29.30;17.90;;;;;;;-144.30;87.36;86577.47;5109989;28;20190;-55
2023/12/29 02:13:00;;;;;;;35.70;18.20;;;;;;;-144.30;87.58;86601.34;5109897;28;20622;-55
2023/12/29 02:15:27;;;;;;;30.23;16.77;;;;;;;-144.30;86.42;86571.50;5109692;28;20218;-55
2023/12/29 02:18:01;;;;;;;26.70;15.23;;;;;;;-144.30;86.37;86553.59;5109810;28;20203;-61
2023/12/29 02:20:30;;;;;;;30.83;16.30;;;;;;;-144.30;85.71;86545.66;5109812;28;20217;-62
2023/12/29 02:22:57;;;;;;;22.93;13.97;;;;;;;-144.30;85.54;86581.44;5110136;28;20191;-60
2023/12/29 02:25:25;;;;;;;22.60;13.87;;;;;;;-144.30;85.47;86567.53;5109469;28;20222;-55
2023/12/29 02:27:58;;;;;;;24.00;14.80;;;;;;;-144.30;85.64;86569.50;5109897;28;20191;-55
2023/12/29 02:30:31;;;;;;;25.10;15.13;;;;;;;-144.30;85.98;86567.53;5109511;28;20286;-55
2023/12/29 02:33:02;;;;;;;32.80;15.57;;;;;;;-144.30;86.39;86575.47;5109752;28;20207;-60
2023/12/29 02:35:33;;;;;;;29.60;15.17;;;;;;;-144.30;86.17;86595.38;5110040;28;20221;-60
2023/12/29 02:38:00;;;;;;;25.67;15.00;;;;;;;-144.30;85.06;86577.47;5110016;28;20564;-54
2023/12/29 02:40:29;;;;;;;27.70;15.80;;;;;;;-144.30;84.69;86597.34;5109570;28;20255;-54
2023/12/29 02:42:56;;;;;;;27.90;15.50;;;;;;;-144.30;84.67;86629.19;5109455;28;20272;-59
2023/12/29 02:45:23;;;;;;;27.97;14.93;;;;;;;-144.30;85.16;86537.69;5109640;28;20765;-54
2023/12/29 02:47:50;;;;;;;27.33;15.53;;;;;;;-144.30;84.87;86585.44;5109940;28;20218;-55
2023/12/29 02:50:17;;;;;;;30.40;15.33;;;;;;;-144.30;85.16;86559.56;5109828;28;20305;-61
2023/12/29 02:52:44;;;;;;;28.70;15.43;;;;;;;-144.30;85.76;86609.28;5109693;28;20246;-60
2023/12/29 02:55:11;;;;;;;30.77;15.80;;;;;;;-144.30;86.13;86597.34;5111590;28;20197;-60
2023/12/29 02:57:39;;;;;;;28.90;16.13;;;;;;;-144.30;86.39;86619.22;5113719;28;20202;-55
2023/12/29 03:00:08;;;;;;;28.13;16.50;;;;;;;-144.30;86.45;86583.44;5113316;28;20205;-54
2023/12/29 03:02:35;;;;;;;29.30;17.13;;;;;;;-144.30;86.56;86573.50;5113897;28;20202;-60
2023/12/29 03:05:02;;;;;;;31.57;17.10;;;;;;;-144.30;86.50;86597.34;5114390;28;20233;-61
2023/12/29 03:07:29;;;;;;;33.20;18.27;;;;;;;-144.30;86.90;86583.44;5113313;28;20274;-61
2023/12/29 03:09:56;;;;;;;31.50;16.00;;;;;;;-144.30;87.07;86597.34;5113372;28;20285;-61
2023/12/29 03:12:23;;;;;;;30.33;16.60;;;;;;;-144.30;86.82;86569.50;5113104;28;20199;-60
2023/12/29 03:14:51;;;;;;;29.23;16.67;;;;;;;-144.30;86.48;86617.25;5113554;28;20191;-61
2023/12/29 03:17:18;;;;;;;30.50;17.53;;;;;;;-144.30;86.61;86645.09;5112985;28;20202;-55
2023/12/29 03:19:45;;;;;;;26.97;16.50;;;;;;;-144.30;86.51;86609.28;5113096;28;20236;-54
2023/12/29 03:22:12;;;;;;;34.83;17.43;;;;;;;-144.30;87.47;86585.44;5112964;28;20205;-55
2023/12/29 03:24:41;;;;;;;31.63;17.77;;;;;;;-144.30;87.47;86583.44;5113109;28;20200;-61
2023/12/29 03:27:08;;;;;;;31.43;17.00;;;;;;;-144.30;87.53;86509.84;5113235;28;20281;-60
2023/12/29 03:29:35;;;;;;;28.83;17.53;;;;;;;-144.30;88.00;86617.25;5113199;28;20199;-61
2023/12/29 03:32:03;;;;;;;29.17;17.37;;;;;;;-144.30;87.79;86581.44;5112939;28;20201;-62
2023/12/29 03:34:30;;;;;;;36.00;19.03;;;;;;;-144.30;87.38;86593.38;5112952;28;20622;-56
2023/12/29 03:36:57;;;;;;;31.70;18.30;;;;;;;-144.30;87.32;86559.56;5112706;28;20194;-54
2023/12/29 03:39:24;;;;;;;36.07;20.87;;;;;;;-144.30;87.58;86575.47;5112374;28;20537;-53
2023/12/29 03:41:51;;;;;;;35.47;19.50;;;;;;;-144.30;88.37;86573.50;5112668;28;20676;-60
2023/12/29 03:44:18;;;;;;;38.43;20.60;;;;;;;-144.30;88.25;86619.22;5112437;28;20556;-55
2023/12/29 03:46:45;;;;;;;34.07;19.77;;;;;;;-144.30;87.97;86583.44;5112557;28;20227;-60
2023/12/29 03:49:13;;;;;;;39.23;20.50;;;;;;;-144.30;88.04;86555.59;5112767;28;20301;-56
2023/12/29 03:51:40;;;;;;;35.77;20.37;;;;;;;-144.30;87.99;86593.38;5112648;28;20212;-61
2023/12/29 03:54:07;;;;;;;37.60;21.20;;;;;;;-144.30;87.67;86639.13;5112899;28;20211;-61
2023/12/29 03:56:34;;;;;;;35.60;19.63;;;;;;;-144.30;88.31;86583.44;5112834;28;20208;-61
2023/12/29 03:59:00;;;;;;;38.03;20.40;;;;;;;-144.30;88.33;86561.56;5112537;28;20208;-55
2023/12/29 04:01:28;;;;;;;36.90;20.80;;;;;;;-144.30;89.54;86597.34;5112091;28;20204;-61
2023/12/29 04:03:55;;;;;;;37.20;20.67;;;;;;;-144.30;89.40;86593.38;5112947;28;20711;-61
2023/12/29 04:06:23;;;;;;;37.13;19.97;;;;;;;-144.30;88.26;86607.31;5110753;28;20616;-60
2023/12/29 04:08:50;;;;;;;34.73;20.27;;;;;;;-144.30;88.28;86573.50;5112160;28;20211;-56
2023/12/29 04:11:17;;;;;;;39.47;22.13;;;;;;;-144.30;88.45;86613.28;5112515;28;20220;-61
2023/12/29 04:13:44;;;;;;;48.67;24.67;;;;;;;-144.30;88.50;86625.19;5112842;28;20403;-55
2023/12/29 04:16:11;;;;;;;45.73;23.90;;;;;;;-144.30;88.03;86589.41;5111851;28;20292;-54
2023/12/29 04:18:38;;;;;;;41.63;23.10;;;;;;;-144.30;88.16;86635.13;5111910;28;20197;-55
2023/12/29 04:21:05;;;;;;;42.57;23.27;;;;;;;-144.30;89.02;86601.34;5111959;28;20628;-54
2023/12/29 04:23:33;;;;;;;43.93;24.43;;;;;;;-144.30;88.40;86599.34;5111964;28;20191;-54
2023/12/29 04:26:00;;;;;;;41.23;22.20;;;;;;;-144.30;88.82;86621.22;5111252;28;20214;-54
2023/12/29 04:28:27;;;;;;;48.57;24.07;;;;;;;-144.30;89.29;86611.28;5111642;28;20208;-61
2023/12/29 04:30:54;;;;;;;45.87;24.87;;;;;;;-144.30;89.44;86625.19;5112187;28;20202;-61
2023/12/29 04:33:21;;;;;;;40.77;23.17;;;;;;;-144.30;89.11;86593.38;5111622;28;20202;-54
2023/12/29 04:35:48;;;;;;;47.27;22.30;;;;;;;-144.30;89.04;86621.22;5111565;28;20199;-54
2023/12/29 04:38:16;;;;;;;44.30;23.17;;;;;;;-144.30;88.20;86587.41;5111773;28;20684;-54
2023/12/29 04:40:46;;;;;;;42.73;22.97;;;;;;;-144.30;88.49;86617.25;5111776;28;20201;-55
2023/12/29 04:43:14;;;;;;;39.97;21.23;;;;;;;-144.30;88.56;86591.38;5111285;28;20234;-54
2023/12/29 04:45:40;;;;;;;41.03;21.57;;;;;;;-144.30;88.94;86621.22;5111438;28;20217;-62
2023/12/29 04:48:08;;;;;;;37.53;21.53;;;;;;;-144.30;89.14;86635.13;5111433;28;20612;-54
2023/12/29 04:50:35;;;;;;;38.53;21.47;;;;;;;-144.30;90.77;86627.19;5111626;28;20602;-61
2023/12/29 04:53:01;;;;;;;38.93;21.23;;;;;;;-144.30;91.62;86625.19;5111687;28;20696;-54
2023/12/29 04:55:28;;;;;;;40.77;21.23;;;;;;;-144.30;91.34;86629.19;5111431;28;20202;-59
2023/12/29 04:57:57;;;;;;;38.00;21.30;;;;;;;-144.30;90.90;86601.34;5111146;28;20217;-53
2023/12/29 05:00:23;;;;;;;39.37;21.57;;;;;;;-144.30;91.72;86605.31;5110917;28;20692;-52
2023/12/29 05:02:50;;;;;;;41.00;23.60;;;;;;;-144.30;92.76;86664.97;5111002;28;20722;-51
2023/12/29 05:05:17;;;;;;;50.60;23.93;;;;;;;-144.30;93.40;86549.63;5111813;28;20233;-52
2023/12/29 05:07:44;;;;;;;40.17;22.50;;;;;;;-144.30;93.26;86645.09;5110393;28;20604;-51
2023/12/29 05:10:11;;;;;;;41.87;22.30;;;;;;;-144.30;93.55;86557.59;5110013;28;20189;-53
2023/12/29 05:12:38;;;;;;;39.87;22.47;;;;;;;-144.30;93.20;86633.16;5110079;28;20195;-59
2023/12/29 05:15:07;;;;;;;37.00;22.43;;;;;;;-144.30;92.98;86674.91;5109806;27;20195;-53
2023/12/29 05:17:33;;;;;;;43.47;23.33;;;;;;;-144.30;92.45;86631.16;5118595;27;20197;-58
2023/12/29 05:20:00;;;;;;;49.00;25.33;;;;;;;-144.30;92.47;86613.28;5093370;27;20259;-59
2023/12/29 05:22:27;;;;;;;53.57;28.90;;;;;;;-144.30;92.86;86611.28;5108093;28;20664;-54
2023/12/29 05:24:57;;;;;;;53.23;28.33;;;;;;;-144.30;93.26;86625.19;5108453;28;20729;-59
2023/12/29 05:27:24;;;;;;;50.33;26.87;;;;;;;-144.30;93.02;86597.34;5107688;28;20697;-53
2023/12/29 05:29:51;;;;;;;45.40;24.43;;;;;;;-144.30;92.87;86637.13;5110910;27;20844;-53
2023/12/29 05:32:19;;;;;;;42.97;23.60;;;;;;;-144.30;92.88;86641.09;5105762;28;20197;-53
2023/12/29 05:34:46;;;;;;;43.00;23.33;;;;;;;-144.30;93.64;86615.25;5108148;28;20201;-53
2023/12/29 05:37:13;;;;;;;42.13;23.17;;;;;;;-144.30;93.68;86629.19;5109019;28;20186;-52
2023/12/29 05:39:43;;;;;;;41.40;24.53;;;;;;;-144.30;93.63;86633.16;5109677;28;20195;-58
2023/12/29 05:42:10;;;;;;;45.90;24.00;;;;;;;-144.30;93.40;86605.31;5109387;28;20230;-59
2023/12/29 05:44:37;;;;;;;51.37;25.70;;;;;;;-144.30;92.96;86595.38;5109849;28;20190;-54
2023/12/29 05:47:05;;;;;;;51.23;26.73;;;;;;;-144.30;92.26;86629.19;5108530;28;20638;-54
2023/12/29 05:49:37;;;;;;;48.60;26.53;;;;;;;-144.30;91.89;86633.16;5108751;28;20203;-53
2023/12/29 05:52:05;;;;;;;50.87;27.30;;;;;;;-144.30;90.97;86629.19;5108234;28;20618;-53
2023/12/29 05:54:32;;;;;;;49.53;26.03;;;;;;;-144.30;90.53;86607.31;5109341;28;20200;-51
2023/12/29 05:56:59;;;;;;;54.20;28.43;;;;;;;-144.30;90.48;86613.28;5109396;28;20206;-54
2023/12/29 05:59:26;;;;;;;45.27;26.90;;;;;;;-144.30;90.66;86579.47;5109231;28;20199;-54
2023/12/29 06:01:53;;;;;;;50.50;27.03;;;;;;;-144.30;89.99;86629.19;5109060;28;20280;-52
2023/12/29 06:04:20;;;;;;;48.80;26.43;;;;;;;-144.30;90.10;86643.09;5109595;28;20346;-54
2023/12/29 06:06:49;;;;;;;46.07;25.47;;;;;;;-144.30;90.21;86611.28;5109792;28;20232;-53
2023/12/29 06:09:15;;;;;;;47.57;25.30;;;;;;;-144.30;89.77;86637.13;5109855;28;20214;-53
2023/12/29 06:11:42;;;;;;;53.50;26.30;;;;;;;-144.30;89.56;86591.38;5109599;28;20206;-53
2023/12/29 06:14:10;;;;;;;47.20;25.20;;;;;;;-144.30;88.98;86613.28;5109360;28;20278;-59
2023/12/29 06:16:36;;;;;;;52.13;28.33;;;;;;;-144.30;88.36;86607.31;5110483;28;20735;-59
2023/12/29 06:19:03;;;;;;;59.67;30.00;;;;;;;-144.30;87.89;86599.34;5110586;28;20202;-60
2023/12/29 06:21:30;;;;;;;51.90;27.73;;;;;;;-144.30;87.56;86571.50;5109851;28;20198;-53
2023/12/29 06:23:59;;;;;;;49.90;27.87;;;;;;;-144.30;87.47;86557.59;5109719;28;20615;-52
2023/12/29 06:26:25;;;;;;;54.50;27.90;;;;;;;-144.30;87.31;86619.22;5109549;28;20223;-53
2023/12/29 06:28:53;;;;;;;51.37;26.10;;;;;;;-144.30;87.12;86585.44;5109807;28;20198;-53
2023/12/29 06:31:20;;;;;;;50.07;25.50;;;;;;;-144.30;87.44;86605.31;5113314;28;20244;-53
2023/12/29 06:33:47;;;;;;;47.50;24.63;;;;;;;-144.30;88.01;86581.44;5113793;28;20198;-59
2023/12/29 06:36:14;;;;;;;42.37;23.70;;;;;;;-144.30;87.50;86613.28;5113707;28;20190;-59
2023/12/29 06:38:41;;;;;;;39.60;23.33;;;;;;;-144.30;86.75;86561.56;5114271;28;20222;-59
2023/12/29 06:41:11;;;;;;;44.97;23.30;;;;;;;-144.30;86.20;86605.31;5113946;28;20665;-53
2023/12/29 06:43:37;;;;;;;40.13;21.70;;;;;;;-144.30;86.67;86567.53;5113900;28;20202;-59
2023/12/29 06:46:05;;;;;;;41.93;21.40;;;;;;;-144.30;86.36;86581.44;5113943;28;20313;-59
2023/12/29 06:48:32;;;;;;;40.93;21.53;;;;;;;-144.30;86.00;86573.50;5113810;28;20195;-59
2023/12/29 06:50:59;;;;;;;34.13;20.80;;;;;;;-144.30;86.86;86585.44;5114369;28;20296;-58
2023/12/29 06:53:26;;;;;;;34.43;20.17;;;;;;;-144.30;87.86;86607.31;5113555;28;20209;-59
2023/12/29 06:55:53;;;;;;;35.27;19.50;;;;;;;-144.30;87.38;86537.69;5113334;28;20221;-54
2023/12/29 06:58:21;;;;;;;46.47;21.23;;;;;;;-144.30;86.85;86595.38;5113220;28;20286;-53
2023/12/29 07:00:48;;;;;;;35.63;19.53;;;;;;;-144.30;86.82;86569.50;5112855;28;20203;-54
2023/12/29 07:03:15;;;;;;;40.90;20.10;;;;;;;-144.30;86.78;86603.31;5113499;28;20191;-54
2023/12/29 07:05:42;;;;;;;38.30;18.43;;;;;;;-144.30;85.71;86545.66;5113213;28;20205;-52
2023/12/29 07:08:09;;;;;;;31.10;17.57;;;;;;;-144.30;85.61;86589.41;5113032;28;20201;-53
2023/12/29 07:10:36;;;;;;;30.47;15.90;;;;;;;-144.30;85.86;86565.53;5113249;28;20206;-55
2023/12/29 07:13:03;;;;;;;28.37;15.40;;;;;;;-144.30;84.64;86553.59;5113400;28;20194;-53
2023/12/29 07:15:31;;;;;;;24.23;13.63;;;;;;;-144.30;84.67;86575.47;5112847;28;20194;-54
2023/12/29 07:17:58;;;;;;;22.10;13.43;;;;;;;-144.30;85.25;86571.50;5113252;28;20186;-58
2023/12/29 07:20:25;;;;;;;23.87;13.83;;;;;;;-144.30;85.17;86553.59;5113398;28;20205;-52
2023/12/29 07:22:52;;;;;;;24.43;15.70;;;;;;;-144.30;84.46;86583.44;5112162;28;20289;-59
2023/12/29 07:25:19;;;;;;;35.17;15.53;;;;;;;-144.30;83.93;86573.50;5112905;28;20285;-51
2023/12/29 07:27:46;;;;;;;27.20;16.00;;;;;;;-144.30;83.39;86561.56;5113017;28;20258;-52
2023/12/29 07:30:14;;;;;;;25.53;15.20;;;;;;;-144.30;83.44;86533.72;5112890;28;20202;-52
2023/12/29 07:32:42;;;;;;;23.23;15.43;;;;;;;-144.30;83.85;86551.63;5112765;28;20286;-53
2023/12/29 07:35:10;;;;;;;32.57;17.40;;;;;;;-144.30;83.21;86497.94;5112673;28;20197;-53
2023/12/29 07:37:37;;;;;;;30.63;17.67;;;;;;;-144.30;83.23;86493.94;5112615;28;20206;-58
2023/12/29 07:40:04;;;;;;;31.87;18.03;;;;;;;-144.30;82.66;86539.69;5112111;28;20218;-54
2023/12/29 07:42:32;;;;;;;35.87;16.70;;;;;;;-144.30;82.23;86521.78;5112225;28;20236;-62
2023/12/29 07:44:59;;;;;;;30.37;15.77;;;;;;;-144.30;81.79;86541.69;5113132;28;20270;-60
2023/12/29 07:47:26;;;;;;;35.00;15.77;;;;;;;-144.30;81.50;86527.75;5111820;28;20305;-53
2023/12/29 07:49:54;;;;;;;25.47;14.77;;;;;;;-144.30;81.23;86551.63;5111992;28;20191;-54
2023/12/29 07:52:21;;;;;;;45.43;28.27;;;;;;;-144.30;79.89;86553.59;5112155;28;20538;-54
2023/12/29 07:54:48;;;;;;;42.63;22.03;;;;;;;-144.30;79.50;86521.78;5112507;28;20198;-54
2023/12/29 07:57:15;;;;;;;29.87;16.67;;;;;;;-144.30;78.98;86824.06;5112098;28;20189;-54
2023/12/29 07:59:42;;;;;;;26.20;15.80;;;;;;;-144.30;78.46;86466.09;5112330;28;20269;-57
2023/12/29 08:02:09;;;;;;;28.40;15.20;;;;;;;-144.30;78.52;86531.72;5111828;28;20193;-53
2023/12/29 08:04:37;;;;;;;23.13;14.70;;;;;;;-144.30;78.34;86501.91;5111721;28;20201;-59
2023/12/29 08:07:05;;;;;;;34.03;15.37;;;;;;;-144.30;78.50;86491.97;5111941;28;20708;-54
2023/12/29 08:09:33;;;;;;;42.50;14.60;;;;;;;-144.30;78.04;86466.09;5112250;28;20615;-58
2023/12/29 08:12:00;;;;;;;31.83;15.47;;;;;;;-144.30;77.67;86509.84;5112395;28;20195;-60
2023/12/29 08:14:28;;;;;;;59.53;17.10;;;;;;;-144.30;78.04;86466.09;5111866;28;20663;-60
2023/12/29 08:16:56;;;;;;;37.70;15.90;;;;;;;-144.30;77.95;86450.19;5112333;28;20285;-53
2023/12/29 08:19:23;;;;;;;34.17;15.20;;;;;;;-144.30;76.95;86493.94;5107233;28;20207;-59
2023/12/29 08:21:52;;;;;;;32.70;16.07;;;;;;;-144.30;76.40;86466.09;5100726;28;20285;-59
2023/12/29 08:24:20;;;;;;;29.53;15.27;;;;;;;-144.30;75.43;86454.19;5111341;28;20206;-53
2023/12/29 08:26:48;;;;;;;23.80;15.47;;;;;;;-144.30;75.02;86446.22;5111097;28;20225;-53
2023/12/29 08:29:16;;;;;;;28.27;15.77;;;;;;;-144.30;74.06;86426.34;5111705;27;20209;-54
2023/12/29 08:31:43;;;;;;;26.23;15.93;;;;;;;-144.30;74.71;86438.28;5114735;27;20187;-54
2023/12/29 08:34:10;;;;;;;28.40;15.07;;;;;;;-144.30;74.24;86420.38;5111039;28;20606;-53
2023/12/29 08:36:37;;;;;;;29.03;15.20;;;;;;;-144.30;72.67;86414.41;5111335;28;20201;-53
2023/12/29 08:39:04;;;;;;;27.17;14.60;;;;;;;-144.30;72.64;86410.44;5111746;28;20213;-59
2023/12/29 08:41:32;;;;;;;29.50;12.87;;;;;;;-144.30;71.74;86392.53;5111350;28;20262;-59
2023/12/29 08:43:59;;;;;;;24.47;13.27;;;;;;;-144.30;71.96;86428.31;5111543;28;20212;-60
2023/12/29 08:46:26;;;;;;;23.20;13.27;;;;;;;-144.30;71.28;86400.50;5111473;28;20694;-54
2023/12/29 08:48:53;;;;;;;19.97;11.90;;;;;;;-144.30;71.05;86412.41;5111103;28;20194;-52
2023/12/29 08:51:20;;;;;;;15.47;10.70;;;;;;;-144.30;70.04;86364.69;5111344;28;20653;-53
2023/12/29 08:53:47;;;;;;;20.10;11.20;;;;;;;-144.30;69.10;86374.63;5110651;28;20623;-58
2023/12/29 08:56:14;;;;;;;24.77;12.47;;;;;;;-144.30;68.03;86352.75;5110831;28;20202;-59
2023/12/29 08:58:42;;;;;;;29.63;15.30;;;;;;;-144.30;67.33;86366.69;5110983;28;20246;-54
2023/12/29 09:01:09;;;;;;;28.23;16.07;;;;;;;-144.30;66.34;86336.84;5111131;28;20202;-54
2023/12/29 09:03:36;;;;;;;31.17;17.33;;;;;;;-144.30;66.63;86342.81;5110706;28;20609;-52
2023/12/29 09:06:03;;;;;;;37.07;16.90;;;;;;;-144.30;66.28;86354.75;5110667;28;20670;-59
2023/12/29 09:08:30;;;;;;;25.10;16.73;;;;;;;-144.30;68.38;86320.94;5109747;28;20736;-60
2023/12/29 09:10:57;;;;;;;27.53;16.03;;;;;;;-144.30;68.16;86344.81;5110610;28;20594;-59
2023/12/29 09:13:26;;;;;;;30.50;16.83;;;;;;;-144.30;69.91;86334.88;5110197;28;20199;-60
2023/12/29 09:15:55;;;;;;;26.80;16.13;;;;;;;-144.30;67.31;86291.13;5111059;28;20195;-53
2023/12/29 09:18:22;;;;;;;31.87;16.67;;;;;;;-144.30;64.94;86265.28;5110702;28;20191;-56
2023/12/29 09:20:49;;;;;;;36.13;16.73;;;;;;;-144.30;65.88;86269.25;5110952;28;20686;-54
2023/12/29 09:23:16;;;;;;;26.53;15.30;;;;;;;-144.30;63.23;86261.28;5110509;28;20199;-53
2023/12/29 09:25:43;;;;;;;29.23;15.13;;;;;;;-144.30;61.59;86223.50;5111066;28;20194;-59
2023/12/29 09:28:10;;;;;;;24.87;14.53;;;;;;;-144.30;62.67;86275.22;5110670;28;20330;-54
2023/12/29 09:30:37;;;;;;;25.30;14.90;;;;;;;-144.30;62.66;86253.34;5110273;28;20233;-60
2023/12/29 09:33:06;;;;;;;24.40;14.80;;;;;;;-144.30;63.40;86523.78;5110626;28;20670;-60
2023/12/29 09:35:32;;;;;;;28.33;16.17;;;;;;;-144.30;63.14;86251.34;5110248;28;20202;-60
2023/12/29 09:38:00;;;;;;;31.43;16.30;;;;;;;-144.30;61.90;86243.41;5110556;28;20286;-60
2023/12/29 09:40:27;;;;;;;25.70;15.97;;;;;;;-144.30;60.79;86255.34;5110269;28;20198;-59
2023/12/29 09:42:54;;;;;;;30.27;15.93;;;;;;;-144.30;62.28;86223.50;5104390;28;20219;-60
2023/12/29 09:45:25;;;;;;;26.87;15.53;;;;;;;-144.30;63.09;86235.44;5110420;28;20202;-54
2023/12/29 09:47:53;;;;;;;22.03;14.47;;;;;;;-144.30;61.58;86197.66;5109919;28;20210;-55
2023/12/29 09:50:22;;;;;;;23.70;14.27;;;;;;;-144.30;60.78;86179.78;5107289;28;20256;-54
2023/12/29 09:52:50;;;;;;;22.13;12.53;;;;;;;-144.30;60.26;86203.63;5109888;27;20209;-58
2023/12/29 09:55:18;;;;;;;23.70;14.53;;;;;;;-144.30;59.43;86215.56;5109884;28;20247;-59
2023/12/29 09:57:45;;;;;;;26.93;15.03;;;;;;;-144.30;59.44;86201.66;5109339;28;20562;-54
2023/12/29 10:00:16;;;;;;;28.73;15.93;;;;;;;-144.30;57.61;86191.69;5109881;28;20697;-60
2023/12/29 10:02:43;;;;;;;24.23;14.83;;;;;;;-144.30;55.54;86684.84;5109501;28;20286;-59
2023/12/29 10:05:10;;;;;;;26.50;15.23;;;;;;;-144.30;54.93;86169.81;5108866;28;20201;-54
2023/12/29 10:07:40;;;;;;;28.33;15.77;;;;;;;-144.30;55.42;86207.59;5108930;28;20225;-54
2023/12/29 10:10:08;;;;;;;32.27;16.70;;;;;;;-144.30;54.88;86167.84;5110228;28;20190;-60
2023/12/29 10:12:38;;;;;;;27.13;15.80;;;;;;;-144.30;54.82;86140.00;5105345;28;20198;-55
2023/12/29 10:15:11;;;;;;;22.33;13.53;;;;;;;-144.30;54.87;86203.63;5108558;28;20208;-59
2023/12/29 10:17:53;;;;;;;27.90;15.60;;;;;;;-144.30;54.21;86118.13;5108407;28;20195;-53
2023/12/29 10:20:32;;;;;;;28.60;15.60;;;;;;;-144.30;54.66;86145.97;5108341;28;20575;-54
2023/12/29 10:23:08;;;;;;;29.33;15.13;;;;;;;-144.30;54.21;86155.91;5107972;28;20273;-54
2023/12/29 10:25:35;;;;;;;27.77;15.63;;;;;;;-144.30;54.16;86130.06;5109849;28;20233;-54
2023/12/29 10:28:02;;;;;;;25.73;15.13;;;;;;;-144.30;53.77;86124.09;5110284;28;20601;-54
2023/12/29 10:30:29;;;;;;;23.23;15.03;;;;;;;-144.30;53.17;86124.09;5109736;28;20209;-57
2023/12/29 10:32:58;;;;;;;30.53;17.00;;;;;;;-144.30;52.67;86088.31;5110060;28;20281;-59
2023/12/29 10:35:25;;;;;;;31.17;16.33;;;;;;;-144.30;53.22;86104.22;5109831;28;20248;-55
2023/12/29 10:37:52;;;;;;;43.17;19.77;;;;;;;-144.30;52.09;86088.31;5109973;28;20693;-61
2023/12/29 10:40:20;;;;;;;35.70;19.70;;;;;;;-144.30;52.78;86116.16;5109638;28;20689;-55
2023/12/29 10:42:54;;;;;;;36.70;17.87;;;;;;;-144.30;52.82;86090.28;5109791;28;20266;-59
2023/12/29 10:45:21;;;;;;;33.00;17.50;;;;;;;-144.30;53.20;86096.25;5109779;28;20199;-55
2023/12/29 10:47:48;;;;;;;38.10;16.83;;;;;;;-144.30;52.84;86112.16;5109533;28;20221;-59
2023/12/29 10:50:15;;;;;;;32.03;17.63;;;;;;;-144.30;52.46;86064.44;5108576;28;20671;-60
2023/12/29 10:52:42;;;;;;;30.00;16.87;;;;;;;-144.30;52.33;86114.16;5109831;28;20205;-59
2023/12/29 10:55:10;;;;;;;38.33;16.93;;;;;;;-144.30;52.24;86116.16;5109682;28;20203;-55
2023/12/29 10:57:40;;;;;;;29.73;17.47;;;;;;;-144.30;52.25;86044.56;5108854;28;20190;-53
2023/12/29 11:00:09;;;;;;;34.53;17.17;;;;;;;-144.30;51.94;86034.63;5109292;28;20201;-54
2023/12/29 11:02:36;;;;;;;36.57;18.27;;;;;;;-144.30;51.76;86082.34;5109375;28;20194;-54